sensor_id;sensor_type;location;lat;lon;timestamp;P1;durP1;ratioP1;P2;durP2;ratioP2
5085;SDS011;4715;51.660;7.082;2023-11-22T00:02:13;3.47;;;3.23;;
5085;SDS011;4715;51.660;7.082;2023-11-22T00:04:36;2.90;;;2.70;;
5085;SDS011;4715;51.660;7.082;2023-11-22T00:06:58;4.03;;;3.73;;
5085;SDS011;4715;51.660;7.082;2023-11-22T00:09:19;3.60;;;3.30;;
5085;SDS011;4715;51.660;7.082;2023-11-22T00:11:43;4.10;;;3.80;;
5085;SDS011;4715;51.660;7.082;2023-11-22T00:14:05;4.23;;;3.80;;
5085;SDS011;4715;51.660;7.082;2023-11-22T00:16:27;3.37;;;3.17;;
5085;SDS011;4715;51.660;7.082;2023-11-22T00:18:50;4.83;;;4.17;;
5085;SDS011;4715;51.660;7.082;2023-11-22T00:21:13;4.27;;;3.87;;
5085;SDS011;4715;51.660;7.082;2023-11-22T00:23:35;4.47;;;3.60;;
5085;SDS011;4715;51.660;7.082;2023-11-22T00:25:57;3.97;;;3.67;;
5085;SDS011;4715;51.660;7.082;2023-11-22T00:28:19;4.87;;;4.50;;
5085;SDS011;4715;51.660;7.082;2023-11-22T00:30:41;4.27;;;3.87;;
5085;SDS011;4715;51.660;7.082;2023-11-22T00:33:02;3.93;;;3.63;;
5085;SDS011;4715;51.660;7.082;2023-11-22T00:35:24;4.17;;;3.90;;
5085;SDS011;4715;51.660;7.082;2023-11-22T00:37:48;3.47;;;3.27;;
5085;SDS011;4715;51.660;7.082;2023-11-22T00:40:10;4.03;;;3.73;;
5085;SDS011;4715;51.660;7.082;2023-11-22T00:42:33;3.63;;;3.33;;
5085;SDS011;4715;51.660;7.082;2023-11-22T00:44:55;3.23;;;3.03;;
5085;SDS011;4715;51.660;7.082;2023-11-22T00:47:18;3.43;;;3.20;;
5085;SDS011;4715;51.660;7.082;2023-11-22T00:49:39;3.10;;;2.80;;
5085;SDS011;4715;51.660;7.082;2023-11-22T00:52:04;3.63;;;3.33;;
5085;SDS011;4715;51.660;7.082;2023-11-22T00:54:28;4.50;;;4.10;;
5085;SDS011;4715;51.660;7.082;2023-11-22T00:56:50;3.10;;;2.90;;
5085;SDS011;4715;51.660;7.082;2023-11-22T00:59:12;3.67;;;3.47;;
5085;SDS011;4715;51.660;7.082;2023-11-22T01:01:34;4.90;;;4.30;;
5085;SDS011;4715;51.660;7.082;2023-11-22T01:03:56;5.03;;;4.63;;
5085;SDS011;4715;51.660;7.082;2023-11-22T01:06:18;4.97;;;4.47;;
5085;SDS011;4715;51.660;7.082;2023-11-22T01:08:40;6.00;;;4.67;;
5085;SDS011;4715;51.660;7.082;2023-11-22T01:11:03;4.97;;;4.47;;
5085;SDS011;4715;51.660;7.082;2023-11-22T01:13:27;4.40;;;4.00;;
5085;SDS011;4715;51.660;7.082;2023-11-22T01:15:49;6.20;;;5.60;;
5085;SDS011;4715;51.660;7.082;2023-11-22T01:18:11;5.13;;;4.47;;
5085;SDS011;4715;51.660;7.082;2023-11-22T01:20:33;5.57;;;4.53;;
5085;SDS011;4715;51.660;7.082;2023-11-22T01:22:55;6.13;;;5.30;;
5085;SDS011;4715;51.660;7.082;2023-11-22T01:25:17;6.80;;;4.63;;
5085;SDS011;4715;51.660;7.082;2023-11-22T01:27:40;4.67;;;4.27;;
5085;SDS011;4715;51.660;7.082;2023-11-22T01:30:02;4.53;;;4.20;;
5085;SDS011;4715;51.660;7.082;2023-11-22T01:32:27;4.10;;;3.80;;
5085;SDS011;4715;51.660;7.082;2023-11-22T01:34:49;5.30;;;4.53;;
5085;SDS011;4715;51.660;7.082;2023-11-22T01:37:11;4.23;;;3.93;;
5085;SDS011;4715;51.660;7.082;2023-11-22T01:39:32;4.00;;;3.60;;
5085;SDS011;4715;51.660;7.082;2023-11-22T01:41:54;3.77;;;3.57;;
5085;SDS011;4715;51.660;7.082;2023-11-22T01:44:17;4.00;;;3.70;;
5085;SDS011;4715;51.660;7.082;2023-11-22T01:46:39;3.90;;;3.60;;
5085;SDS011;4715;51.660;7.082;2023-11-22T01:49:01;3.40;;;3.10;;
5085;SDS011;4715;51.660;7.082;2023-11-22T01:51:23;3.63;;;3.37;;
5085;SDS011;4715;51.660;7.082;2023-11-22T01:53:46;4.13;;;3.83;;
5085;SDS011;4715;51.660;7.082;2023-11-22T01:56:10;4.70;;;4.30;;
5085;SDS011;4715;51.660;7.082;2023-11-22T01:58:31;4.83;;;4.43;;
5085;SDS011;4715;51.660;7.082;2023-11-22T02:00:55;5.33;;;4.47;;
5085;SDS011;4715;51.660;7.082;2023-11-22T02:03:19;5.47;;;5.07;;
5085;SDS011;4715;51.660;7.082;2023-11-22T02:05:42;5.40;;;4.80;;
5085;SDS011;4715;51.660;7.082;2023-11-22T02:08:04;5.63;;;5.13;;
5085;SDS011;4715;51.660;7.082;2023-11-22T02:10:26;6.30;;;4.90;;
5085;SDS011;4715;51.660;7.082;2023-11-22T02:12:49;5.73;;;4.70;;
5085;SDS011;4715;51.660;7.082;2023-11-22T02:15:11;5.90;;;5.30;;
5085;SDS011;4715;51.660;7.082;2023-11-22T02:17:34;4.90;;;4.50;;
5085;SDS011;4715;51.660;7.082;2023-11-22T02:19:56;9.43;;;6.30;;
5085;SDS011;4715;51.660;7.082;2023-11-22T02:22:18;4.97;;;4.37;;
5085;SDS011;4715;51.660;7.082;2023-11-22T02:24:41;6.43;;;5.80;;
5085;SDS011;4715;51.660;7.082;2023-11-22T02:27:03;6.57;;;5.57;;
5085;SDS011;4715;51.660;7.082;2023-11-22T02:29:26;6.07;;;5.23;;
5085;SDS011;4715;51.660;7.082;2023-11-22T02:31:49;6.27;;;5.60;;
5085;SDS011;4715;51.660;7.082;2023-11-22T02:34:11;6.20;;;5.60;;
5085;SDS011;4715;51.660;7.082;2023-11-22T02:36:35;7.80;;;5.90;;
5085;SDS011;4715;51.660;7.082;2023-11-22T02:38:57;7.87;;;6.10;;
5085;SDS011;4715;51.660;7.082;2023-11-22T02:41:21;6.50;;;5.20;;
5085;SDS011;4715;51.660;7.082;2023-11-22T02:43:45;9.60;;;6.93;;
5085;SDS011;4715;51.660;7.082;2023-11-22T02:46:08;7.37;;;6.53;;
5085;SDS011;4715;51.660;7.082;2023-11-22T02:48:31;10.30;;;6.73;;
5085;SDS011;4715;51.660;7.082;2023-11-22T02:50:54;8.70;;;6.90;;
5085;SDS011;4715;51.660;7.082;2023-11-22T02:53:16;8.93;;;6.80;;
5085;SDS011;4715;51.660;7.082;2023-11-22T02:55:38;7.50;;;6.30;;
5085;SDS011;4715;51.660;7.082;2023-11-22T02:58:02;6.87;;;5.83;;
5085;SDS011;4715;51.660;7.082;2023-11-22T03:00:24;6.47;;;5.87;;
5085;SDS011;4715;51.660;7.082;2023-11-22T03:02:46;7.20;;;6.47;;
5085;SDS011;4715;51.660;7.082;2023-11-22T03:05:13;6.30;;;5.70;;
5085;SDS011;4715;51.660;7.082;2023-11-22T03:07:35;7.80;;;6.50;;
5085;SDS011;4715;51.660;7.082;2023-11-22T03:09:57;6.67;;;5.97;;
5085;SDS011;4715;51.660;7.082;2023-11-22T03:12:21;6.27;;;5.37;;
5085;SDS011;4715;51.660;7.082;2023-11-22T03:14:44;6.00;;;5.10;;
5085;SDS011;4715;51.660;7.082;2023-11-22T03:17:06;6.73;;;6.03;;
5085;SDS011;4715;51.660;7.082;2023-11-22T03:19:28;5.93;;;5.30;;
5085;SDS011;4715;51.660;7.082;2023-11-22T03:21:50;6.27;;;5.70;;
5085;SDS011;4715;51.660;7.082;2023-11-22T03:24:11;6.23;;;5.63;;
5085;SDS011;4715;51.660;7.082;2023-11-22T03:26:36;6.40;;;5.30;;
5085;SDS011;4715;51.660;7.082;2023-11-22T03:28:59;5.50;;;4.40;;
5085;SDS011;4715;51.660;7.082;2023-11-22T03:31:23;6.37;;;4.67;;
5085;SDS011;4715;51.660;7.082;2023-11-22T03:33:44;6.27;;;5.70;;
5085;SDS011;4715;51.660;7.082;2023-11-22T03:36:07;6.83;;;5.00;;
5085;SDS011;4715;51.660;7.082;2023-11-22T03:38:31;6.07;;;5.03;;
5085;SDS011;4715;51.660;7.082;2023-11-22T03:40:53;6.70;;;5.87;;
5085;SDS011;4715;51.660;7.082;2023-11-22T03:43:14;7.43;;;5.70;;
5085;SDS011;4715;51.660;7.082;2023-11-22T03:45:37;5.10;;;4.60;;
5085;SDS011;4715;51.660;7.082;2023-11-22T03:48:01;8.00;;;5.23;;
5085;SDS011;4715;51.660;7.082;2023-11-22T03:50:23;6.60;;;5.83;;
5085;SDS011;4715;51.660;7.082;2023-11-22T03:52:46;7.20;;;5.60;;
5085;SDS011;4715;51.660;7.082;2023-11-22T03:55:08;6.00;;;5.23;;
5085;SDS011;4715;51.660;7.082;2023-11-22T03:57:29;7.13;;;5.90;;
5085;SDS011;4715;51.660;7.082;2023-11-22T03:59:51;8.03;;;6.30;;
5085;SDS011;4715;51.660;7.082;2023-11-22T04:02:13;9.07;;;6.40;;
5085;SDS011;4715;51.660;7.082;2023-11-22T04:04:36;7.20;;;6.47;;
5085;SDS011;4715;51.660;7.082;2023-11-22T04:06:59;8.50;;;6.80;;
5085;SDS011;4715;51.660;7.082;2023-11-22T04:09:21;7.37;;;5.97;;
5085;SDS011;4715;51.660;7.082;2023-11-22T04:11:44;9.07;;;6.10;;
5085;SDS011;4715;51.660;7.082;2023-11-22T04:14:05;5.80;;;4.90;;
5085;SDS011;4715;51.660;7.082;2023-11-22T04:16:27;7.07;;;5.37;;
5085;SDS011;4715;51.660;7.082;2023-11-22T04:18:49;6.97;;;5.80;;
5085;SDS011;4715;51.660;7.082;2023-11-22T04:21:13;7.33;;;5.53;;
5085;SDS011;4715;51.660;7.082;2023-11-22T04:23:35;5.20;;;4.80;;
5085;SDS011;4715;51.660;7.082;2023-11-22T04:25:58;5.60;;;5.10;;
5085;SDS011;4715;51.660;7.082;2023-11-22T04:28:20;5.00;;;4.50;;
5085;SDS011;4715;51.660;7.082;2023-11-22T04:30:42;6.10;;;5.50;;
5085;SDS011;4715;51.660;7.082;2023-11-22T04:33:04;5.40;;;4.73;;
5085;SDS011;4715;51.660;7.082;2023-11-22T04:35:26;4.87;;;4.37;;
5085;SDS011;4715;51.660;7.082;2023-11-22T04:37:49;4.77;;;4.37;;
5085;SDS011;4715;51.660;7.082;2023-11-22T04:40:12;4.97;;;4.47;;
5085;SDS011;4715;51.660;7.082;2023-11-22T04:42:35;4.50;;;4.10;;
5085;SDS011;4715;51.660;7.082;2023-11-22T04:44:57;4.23;;;3.57;;
5085;SDS011;4715;51.660;7.082;2023-11-22T04:47:20;4.03;;;3.73;;
5085;SDS011;4715;51.660;7.082;2023-11-22T04:49:43;3.87;;;3.67;;
5085;SDS011;4715;51.660;7.082;2023-11-22T04:52:04;4.27;;;3.90;;
5085;SDS011;4715;51.660;7.082;2023-11-22T04:54:28;5.03;;;3.40;;
5085;SDS011;4715;51.660;7.082;2023-11-22T04:56:50;4.33;;;3.77;;
5085;SDS011;4715;51.660;7.082;2023-11-22T04:59:12;3.93;;;3.63;;
5085;SDS011;4715;51.660;7.082;2023-11-22T05:01:33;4.00;;;3.70;;
5085;SDS011;4715;51.660;7.082;2023-11-22T05:03:55;5.90;;;4.03;;
5085;SDS011;4715;51.660;7.082;2023-11-22T05:06:18;4.20;;;3.80;;
5085;SDS011;4715;51.660;7.082;2023-11-22T05:08:40;4.73;;;4.30;;
5085;SDS011;4715;51.660;7.082;2023-11-22T05:11:04;4.53;;;4.13;;
5085;SDS011;4715;51.660;7.082;2023-11-22T05:13:26;4.07;;;3.80;;
5085;SDS011;4715;51.660;7.082;2023-11-22T05:15:56;3.70;;;3.40;;
5085;SDS011;4715;51.660;7.082;2023-11-22T05:18:18;4.27;;;3.97;;
5085;SDS011;4715;51.660;7.082;2023-11-22T05:20:40;4.77;;;3.70;;
5085;SDS011;4715;51.660;7.082;2023-11-22T05:23:02;4.43;;;4.03;;
5085;SDS011;4715;51.660;7.082;2023-11-22T05:25:24;3.70;;;3.40;;
5085;SDS011;4715;51.660;7.082;2023-11-22T05:27:47;4.37;;;3.97;;
5085;SDS011;4715;51.660;7.082;2023-11-22T05:30:11;3.87;;;3.57;;
5085;SDS011;4715;51.660;7.082;2023-11-22T05:32:35;3.93;;;3.60;;
5085;SDS011;4715;51.660;7.082;2023-11-22T05:34:58;3.77;;;3.47;;
5085;SDS011;4715;51.660;7.082;2023-11-22T05:37:30;5.23;;;3.53;;
5085;SDS011;4715;51.660;7.082;2023-11-22T05:39:55;4.30;;;3.90;;
5085;SDS011;4715;51.660;7.082;2023-11-22T05:42:17;4.33;;;3.93;;
5085;SDS011;4715;51.660;7.082;2023-11-22T05:44:40;6.40;;;3.87;;
5085;SDS011;4715;51.660;7.082;2023-11-22T05:47:02;4.10;;;3.70;;
5085;SDS011;4715;51.660;7.082;2023-11-22T05:49:24;3.77;;;3.47;;
5085;SDS011;4715;51.660;7.082;2023-11-22T05:51:47;5.33;;;4.13;;
5085;SDS011;4715;51.660;7.082;2023-11-22T05:54:08;4.87;;;4.40;;
5085;SDS011;4715;51.660;7.082;2023-11-22T05:56:32;4.47;;;3.87;;
5085;SDS011;4715;51.660;7.082;2023-11-22T05:58:54;4.73;;;4.23;;
5085;SDS011;4715;51.660;7.082;2023-11-22T06:01:18;5.40;;;4.30;;
5085;SDS011;4715;51.660;7.082;2023-11-22T06:03:39;4.10;;;3.80;;
5085;SDS011;4715;51.660;7.082;2023-11-22T06:06:04;4.30;;;3.83;;
5085;SDS011;4715;51.660;7.082;2023-11-22T06:08:30;5.13;;;4.23;;
5085;SDS011;4715;51.660;7.082;2023-11-22T06:10:54;5.60;;;3.93;;
5085;SDS011;4715;51.660;7.082;2023-11-22T06:13:18;5.17;;;3.93;;
5085;SDS011;4715;51.660;7.082;2023-11-22T06:15:40;4.70;;;4.23;;
5085;SDS011;4715;51.660;7.082;2023-11-22T06:18:06;4.80;;;4.40;;
5085;SDS011;4715;51.660;7.082;2023-11-22T06:20:34;4.33;;;3.93;;
5085;SDS011;4715;51.660;7.082;2023-11-22T06:22:56;6.13;;;4.40;;
5085;SDS011;4715;51.660;7.082;2023-11-22T06:25:21;4.43;;;3.90;;
5085;SDS011;4715;51.660;7.082;2023-11-22T06:27:43;5.00;;;4.50;;
5085;SDS011;4715;51.660;7.082;2023-11-22T06:30:06;6.60;;;4.07;;
5085;SDS011;4715;51.660;7.082;2023-11-22T06:32:29;4.57;;;4.03;;
5085;SDS011;4715;51.660;7.082;2023-11-22T06:34:54;4.63;;;4.23;;
5085;SDS011;4715;51.660;7.082;2023-11-22T06:37:16;5.43;;;4.57;;
5085;SDS011;4715;51.660;7.082;2023-11-22T06:39:39;4.87;;;4.10;;
5085;SDS011;4715;51.660;7.082;2023-11-22T06:42:03;7.13;;;5.50;;
5085;SDS011;4715;51.660;7.082;2023-11-22T06:44:28;4.87;;;4.07;;
5085;SDS011;4715;51.660;7.082;2023-11-22T06:46:51;4.93;;;4.00;;
5085;SDS011;4715;51.660;7.082;2023-11-22T06:49:16;4.80;;;4.30;;
5085;SDS011;4715;51.660;7.082;2023-11-22T06:51:40;4.80;;;4.33;;
5085;SDS011;4715;51.660;7.082;2023-11-22T06:54:03;4.53;;;4.13;;
5085;SDS011;4715;51.660;7.082;2023-11-22T06:56:28;3.87;;;3.50;;
5085;SDS011;4715;51.660;7.082;2023-11-22T06:58:50;5.70;;;4.93;;
5085;SDS011;4715;51.660;7.082;2023-11-22T07:01:12;5.77;;;5.20;;
5085;SDS011;4715;51.660;7.082;2023-11-22T07:03:36;7.07;;;4.23;;
5085;SDS011;4715;51.660;7.082;2023-11-22T07:05:58;5.53;;;4.20;;
5085;SDS011;4715;51.660;7.082;2023-11-22T07:08:22;8.03;;;5.50;;
5085;SDS011;4715;51.660;7.082;2023-11-22T07:10:45;5.80;;;4.70;;
5085;SDS011;4715;51.660;7.082;2023-11-22T07:13:08;5.07;;;4.57;;
5085;SDS011;4715;51.660;7.082;2023-11-22T07:15:30;5.90;;;5.23;;
5085;SDS011;4715;51.660;7.082;2023-11-22T07:17:53;5.77;;;4.73;;
5085;SDS011;4715;51.660;7.082;2023-11-22T07:20:15;6.60;;;4.83;;
5085;SDS011;4715;51.660;7.082;2023-11-22T07:22:37;5.10;;;4.60;;
5085;SDS011;4715;51.660;7.082;2023-11-22T07:25:04;5.50;;;4.60;;
5085;SDS011;4715;51.660;7.082;2023-11-22T07:27:38;5.07;;;4.37;;
5085;SDS011;4715;51.660;7.082;2023-11-22T07:30:00;4.77;;;4.37;;
5085;SDS011;4715;51.660;7.082;2023-11-22T07:32:24;4.87;;;4.37;;
5085;SDS011;4715;51.660;7.082;2023-11-22T07:34:46;4.57;;;4.10;;
5085;SDS011;4715;51.660;7.082;2023-11-22T07:37:08;5.00;;;4.50;;
5085;SDS011;4715;51.660;7.082;2023-11-22T07:39:30;4.90;;;4.50;;
5085;SDS011;4715;51.660;7.082;2023-11-22T07:41:54;5.00;;;4.50;;
5085;SDS011;4715;51.660;7.082;2023-11-22T07:44:16;5.17;;;4.67;;
5085;SDS011;4715;51.660;7.082;2023-11-22T07:46:41;5.73;;;5.13;;
5085;SDS011;4715;51.660;7.082;2023-11-22T07:49:04;4.30;;;4.07;;
5085;SDS011;4715;51.660;7.082;2023-11-22T07:51:29;5.37;;;4.87;;
5085;SDS011;4715;51.660;7.082;2023-11-22T07:53:52;5.10;;;4.60;;
5085;SDS011;4715;51.660;7.082;2023-11-22T07:56:18;5.80;;;5.20;;
5085;SDS011;4715;51.660;7.082;2023-11-22T07:58:41;7.47;;;4.87;;
5085;SDS011;4715;51.660;7.082;2023-11-22T08:01:04;5.80;;;5.17;;
5085;SDS011;4715;51.660;7.082;2023-11-22T08:03:33;5.00;;;4.50;;
5085;SDS011;4715;51.660;7.082;2023-11-22T08:05:55;7.00;;;4.70;;
5085;SDS011;4715;51.660;7.082;2023-11-22T08:08:17;6.47;;;5.30;;
5085;SDS011;4715;51.660;7.082;2023-11-22T08:10:39;8.77;;;4.93;;
5085;SDS011;4715;51.660;7.082;2023-11-22T08:13:03;5.27;;;4.77;;
5085;SDS011;4715;51.660;7.082;2023-11-22T08:15:26;5.90;;;5.17;;
5085;SDS011;4715;51.660;7.082;2023-11-22T08:17:48;7.37;;;5.50;;
5085;SDS011;4715;51.660;7.082;2023-11-22T08:20:10;4.83;;;4.33;;
5085;SDS011;4715;51.660;7.082;2023-11-22T08:22:37;3.70;;;3.50;;
5085;SDS011;4715;51.660;7.082;2023-11-22T08:24:59;4.77;;;4.13;;
5085;SDS011;4715;51.660;7.082;2023-11-22T08:27:21;4.67;;;4.27;;
5085;SDS011;4715;51.660;7.082;2023-11-22T08:29:43;5.30;;;4.00;;
5085;SDS011;4715;51.660;7.082;2023-11-22T08:32:09;4.93;;;4.47;;
5085;SDS011;4715;51.660;7.082;2023-11-22T08:34:34;4.53;;;4.10;;
5085;SDS011;4715;51.660;7.082;2023-11-22T08:36:56;5.23;;;4.30;;
5085;SDS011;4715;51.660;7.082;2023-11-22T08:39:19;4.40;;;4.00;;
5085;SDS011;4715;51.660;7.082;2023-11-22T08:41:41;4.50;;;4.10;;
5085;SDS011;4715;51.660;7.082;2023-11-22T08:44:03;5.97;;;4.50;;
5085;SDS011;4715;51.660;7.082;2023-11-22T08:46:26;4.30;;;4.00;;
5085;SDS011;4715;51.660;7.082;2023-11-22T08:48:52;4.07;;;3.37;;
5085;SDS011;4715;51.660;7.082;2023-11-22T08:51:17;4.87;;;3.67;;
5085;SDS011;4715;51.660;7.082;2023-11-22T08:53:39;3.80;;;3.40;;
5085;SDS011;4715;51.660;7.082;2023-11-22T08:56:00;4.53;;;4.10;;
5085;SDS011;4715;51.660;7.082;2023-11-22T08:58:25;3.67;;;3.37;;
5085;SDS011;4715;51.660;7.082;2023-11-22T09:00:49;4.80;;;4.00;;
5085;SDS011;4715;51.660;7.082;2023-11-22T09:03:11;4.13;;;3.80;;
5085;SDS011;4715;51.660;7.082;2023-11-22T09:05:34;3.90;;;3.60;;
5085;SDS011;4715;51.660;7.082;2023-11-22T09:07:56;3.77;;;3.33;;
5085;SDS011;4715;51.660;7.082;2023-11-22T09:10:19;3.80;;;3.33;;
5085;SDS011;4715;51.660;7.082;2023-11-22T09:12:42;3.83;;;3.53;;
5085;SDS011;4715;51.660;7.082;2023-11-22T09:15:05;3.30;;;3.10;;
5085;SDS011;4715;51.660;7.082;2023-11-22T09:17:30;3.77;;;3.37;;
5085;SDS011;4715;51.660;7.082;2023-11-22T09:19:52;2.90;;;2.70;;
5085;SDS011;4715;51.660;7.082;2023-11-22T09:22:17;3.53;;;3.23;;
5085;SDS011;4715;51.660;7.082;2023-11-22T09:24:39;3.47;;;3.13;;
5085;SDS011;4715;51.660;7.082;2023-11-22T09:27:02;3.70;;;3.40;;
5085;SDS011;4715;51.660;7.082;2023-11-22T09:29:26;4.17;;;3.53;;
5085;SDS011;4715;51.660;7.082;2023-11-22T09:31:47;4.10;;;3.30;;
5085;SDS011;4715;51.660;7.082;2023-11-22T09:34:12;3.50;;;3.20;;
5085;SDS011;4715;51.660;7.082;2023-11-22T09:36:34;3.87;;;3.47;;
5085;SDS011;4715;51.660;7.082;2023-11-22T09:38:58;3.17;;;2.87;;
5085;SDS011;4715;51.660;7.082;2023-11-22T09:41:22;3.63;;;3.33;;
5085;SDS011;4715;51.660;7.082;2023-11-22T09:43:45;2.97;;;2.73;;
5085;SDS011;4715;51.660;7.082;2023-11-22T09:46:10;3.60;;;3.27;;
5085;SDS011;4715;51.660;7.082;2023-11-22T09:48:33;3.20;;;3.00;;
5085;SDS011;4715;51.660;7.082;2023-11-22T09:50:59;3.20;;;2.90;;
5085;SDS011;4715;51.660;7.082;2023-11-22T09:53:27;3.57;;;3.27;;
5085;SDS011;4715;51.660;7.082;2023-11-22T09:55:57;3.33;;;3.03;;
5085;SDS011;4715;51.660;7.082;2023-11-22T09:58:19;2.93;;;2.73;;
5085;SDS011;4715;51.660;7.082;2023-11-22T10:00:42;3.10;;;2.90;;
5085;SDS011;4715;51.660;7.082;2023-11-22T10:03:04;3.13;;;2.97;;
5085;SDS011;4715;51.660;7.082;2023-11-22T10:05:26;3.33;;;3.03;;
5085;SDS011;4715;51.660;7.082;2023-11-22T10:07:48;3.47;;;3.17;;
5085;SDS011;4715;51.660;7.082;2023-11-22T10:10:10;3.97;;;3.00;;
5085;SDS011;4715;51.660;7.082;2023-11-22T10:12:36;3.13;;;2.93;;
5085;SDS011;4715;51.660;7.082;2023-11-22T10:15:10;3.50;;;3.23;;
5085;SDS011;4715;51.660;7.082;2023-11-22T10:17:33;2.63;;;2.43;;
5085;SDS011;4715;51.660;7.082;2023-11-22T10:19:55;3.23;;;3.03;;
5085;SDS011;4715;51.660;7.082;2023-11-22T10:22:18;2.93;;;2.73;;
5085;SDS011;4715;51.660;7.082;2023-11-22T10:24:40;3.10;;;2.80;;
5085;SDS011;4715;51.660;7.082;2023-11-22T10:27:06;2.93;;;2.73;;
5085;SDS011;4715;51.660;7.082;2023-11-22T10:29:30;2.90;;;2.70;;
5085;SDS011;4715;51.660;7.082;2023-11-22T10:31:53;2.70;;;2.50;;
5085;SDS011;4715;51.660;7.082;2023-11-22T10:34:18;3.03;;;2.83;;
5085;SDS011;4715;51.660;7.082;2023-11-22T10:36:40;3.67;;;3.47;;
5085;SDS011;4715;51.660;7.082;2023-11-22T10:39:09;4.07;;;3.30;;
5085;SDS011;4715;51.660;7.082;2023-11-22T10:41:36;4.47;;;3.53;;
5085;SDS011;4715;51.660;7.082;2023-11-22T10:43:59;3.13;;;2.87;;
5085;SDS011;4715;51.660;7.082;2023-11-22T10:46:26;5.10;;;3.73;;
5085;SDS011;4715;51.660;7.082;2023-11-22T10:48:53;3.60;;;3.30;;
5085;SDS011;4715;51.660;7.082;2023-11-22T10:51:15;3.43;;;3.23;;
5085;SDS011;4715;51.660;7.082;2023-11-22T10:53:42;3.40;;;3.20;;
5085;SDS011;4715;51.660;7.082;2023-11-22T10:56:11;3.60;;;3.30;;
5085;SDS011;4715;51.660;7.082;2023-11-22T10:58:35;3.60;;;3.40;;
5085;SDS011;4715;51.660;7.082;2023-11-22T11:01:01;3.60;;;2.97;;
5085;SDS011;4715;51.660;7.082;2023-11-22T11:03:29;3.20;;;3.00;;
5085;SDS011;4715;51.660;7.082;2023-11-22T11:05:59;3.63;;;3.33;;
5085;SDS011;4715;51.660;7.082;2023-11-22T11:08:25;2.80;;;2.60;;
5085;SDS011;4715;51.660;7.082;2023-11-22T11:10:49;2.60;;;2.40;;
5085;SDS011;4715;51.660;7.082;2023-11-22T11:13:12;3.37;;;2.90;;
5085;SDS011;4715;51.660;7.082;2023-11-22T11:15:34;2.60;;;2.40;;
5085;SDS011;4715;51.660;7.082;2023-11-22T11:17:56;2.90;;;2.70;;
5085;SDS011;4715;51.660;7.082;2023-11-22T11:20:22;2.50;;;2.30;;
5085;SDS011;4715;51.660;7.082;2023-11-22T11:22:46;2.90;;;2.73;;
5085;SDS011;4715;51.660;7.082;2023-11-22T11:25:09;2.47;;;2.27;;
5085;SDS011;4715;51.660;7.082;2023-11-22T11:27:36;2.37;;;2.20;;
5085;SDS011;4715;51.660;7.082;2023-11-22T11:29:58;2.30;;;2.20;;
5085;SDS011;4715;51.660;7.082;2023-11-22T11:32:30;3.77;;;2.50;;
5085;SDS011;4715;51.660;7.082;2023-11-22T11:34:52;2.80;;;2.60;;
5085;SDS011;4715;51.660;7.082;2023-11-22T11:37:18;3.37;;;2.80;;
5085;SDS011;4715;51.660;7.082;2023-11-22T11:39:40;2.80;;;2.53;;
5085;SDS011;4715;51.660;7.082;2023-11-22T11:42:07;2.87;;;2.67;;
5085;SDS011;4715;51.660;7.082;2023-11-22T11:44:31;2.93;;;2.60;;
5085;SDS011;4715;51.660;7.082;2023-11-22T11:46:53;2.20;;;2.00;;
5085;SDS011;4715;51.660;7.082;2023-11-22T11:49:19;3.10;;;2.90;;
5085;SDS011;4715;51.660;7.082;2023-11-22T11:51:44;3.13;;;2.90;;
5085;SDS011;4715;51.660;7.082;2023-11-22T11:54:07;3.73;;;2.70;;
5085;SDS011;4715;51.660;7.082;2023-11-22T11:56:29;2.73;;;2.53;;
5085;SDS011;4715;51.660;7.082;2023-11-22T11:58:55;4.00;;;2.50;;
5085;SDS011;4715;51.660;7.082;2023-11-22T12:01:19;2.80;;;2.60;;
5085;SDS011;4715;51.660;7.082;2023-11-22T12:03:41;2.77;;;2.57;;
5085;SDS011;4715;51.660;7.082;2023-11-22T12:06:04;2.73;;;2.53;;
5085;SDS011;4715;51.660;7.082;2023-11-22T12:08:26;2.83;;;2.63;;
5085;SDS011;4715;51.660;7.082;2023-11-22T12:10:55;2.77;;;2.57;;
5085;SDS011;4715;51.660;7.082;2023-11-22T12:13:19;3.13;;;2.93;;
5085;SDS011;4715;51.660;7.082;2023-11-22T12:15:42;2.67;;;2.47;;
5085;SDS011;4715;51.660;7.082;2023-11-22T12:18:04;3.97;;;2.83;;
5085;SDS011;4715;51.660;7.082;2023-11-22T12:20:27;3.80;;;3.23;;
5085;SDS011;4715;51.660;7.082;2023-11-22T12:22:51;3.43;;;3.20;;
5085;SDS011;4715;51.660;7.082;2023-11-22T12:25:14;3.10;;;2.90;;
5085;SDS011;4715;51.660;7.082;2023-11-22T12:27:41;4.00;;;3.00;;
5085;SDS011;4715;51.660;7.082;2023-11-22T12:30:07;3.50;;;3.13;;
5085;SDS011;4715;51.660;7.082;2023-11-22T12:32:31;3.00;;;2.80;;
5085;SDS011;4715;51.660;7.082;2023-11-22T12:34:54;2.50;;;2.30;;
5085;SDS011;4715;51.660;7.082;2023-11-22T12:37:16;2.87;;;2.67;;
5085;SDS011;4715;51.660;7.082;2023-11-22T12:39:41;3.90;;;3.60;;
5085;SDS011;4715;51.660;7.082;2023-11-22T12:42:03;2.80;;;2.60;;
5085;SDS011;4715;51.660;7.082;2023-11-22T12:44:28;3.23;;;3.03;;
5085;SDS011;4715;51.660;7.082;2023-11-22T12:46:52;2.90;;;2.60;;
5085;SDS011;4715;51.660;7.082;2023-11-22T12:49:17;3.87;;;2.80;;
5085;SDS011;4715;51.660;7.082;2023-11-22T12:51:38;3.13;;;2.87;;
5085;SDS011;4715;51.660;7.082;2023-11-22T12:54:06;2.80;;;2.60;;
5085;SDS011;4715;51.660;7.082;2023-11-22T12:56:28;3.70;;;2.40;;
5085;SDS011;4715;51.660;7.082;2023-11-22T12:58:50;2.50;;;2.30;;
5085;SDS011;4715;51.660;7.082;2023-11-22T13:01:15;2.97;;;2.73;;
5085;SDS011;4715;51.660;7.082;2023-11-22T13:03:41;3.20;;;2.97;;
5085;SDS011;4715;51.660;7.082;2023-11-22T13:06:04;2.80;;;2.60;;
5085;SDS011;4715;51.660;7.082;2023-11-22T13:08:26;3.67;;;2.90;;
5085;SDS011;4715;51.660;7.082;2023-11-22T13:10:50;3.07;;;2.77;;
5085;SDS011;4715;51.660;7.082;2023-11-22T13:13:13;3.10;;;2.90;;
5085;SDS011;4715;51.660;7.082;2023-11-22T13:15:35;3.07;;;2.77;;
5085;SDS011;4715;51.660;7.082;2023-11-22T13:18:02;2.83;;;2.63;;
5085;SDS011;4715;51.660;7.082;2023-11-22T13:20:28;2.70;;;2.50;;
5085;SDS011;4715;51.660;7.082;2023-11-22T13:22:49;6.60;;;2.90;;
5085;SDS011;4715;51.660;7.082;2023-11-22T13:25:13;4.87;;;3.60;;
5085;SDS011;4715;51.660;7.082;2023-11-22T13:27:37;4.40;;;4.00;;
5085;SDS011;4715;51.660;7.082;2023-11-22T13:30:02;3.97;;;3.57;;
5085;SDS011;4715;51.660;7.082;2023-11-22T13:32:25;4.73;;;4.33;;
5085;SDS011;4715;51.660;7.082;2023-11-22T13:34:48;3.40;;;3.10;;
5085;SDS011;4715;51.660;7.082;2023-11-22T13:37:16;4.23;;;3.50;;
5085;SDS011;4715;51.660;7.082;2023-11-22T13:39:38;3.40;;;3.20;;
5085;SDS011;4715;51.660;7.082;2023-11-22T13:42:01;5.60;;;3.33;;
5085;SDS011;4715;51.660;7.082;2023-11-22T13:44:24;3.73;;;3.43;;
5085;SDS011;4715;51.660;7.082;2023-11-22T13:46:48;3.40;;;2.80;;
5085;SDS011;4715;51.660;7.082;2023-11-22T13:49:10;4.33;;;3.43;;
5085;SDS011;4715;51.660;7.082;2023-11-22T13:51:34;4.63;;;4.20;;
5085;SDS011;4715;51.660;7.082;2023-11-22T13:53:56;4.23;;;3.87;;
5085;SDS011;4715;51.660;7.082;2023-11-22T13:56:18;6.03;;;4.40;;
5085;SDS011;4715;51.660;7.082;2023-11-22T13:58:42;4.67;;;4.27;;
5085;SDS011;4715;51.660;7.082;2023-11-22T14:01:04;4.90;;;4.40;;
5085;SDS011;4715;51.660;7.082;2023-11-22T14:03:35;4.70;;;4.17;;
5085;SDS011;4715;51.660;7.082;2023-11-22T14:05:59;6.57;;;3.50;;
5085;SDS011;4715;51.660;7.082;2023-11-22T14:08:23;5.23;;;4.07;;
5085;SDS011;4715;51.660;7.082;2023-11-22T14:10:45;5.40;;;4.37;;
5085;SDS011;4715;51.660;7.082;2023-11-22T14:13:08;6.93;;;4.47;;
5085;SDS011;4715;51.660;7.082;2023-11-22T14:15:32;7.00;;;3.83;;
5085;SDS011;4715;51.660;7.082;2023-11-22T14:17:54;5.57;;;4.90;;
5085;SDS011;4715;51.660;7.082;2023-11-22T14:20:17;7.37;;;4.40;;
5085;SDS011;4715;51.660;7.082;2023-11-22T14:22:39;5.20;;;4.37;;
5085;SDS011;4715;51.660;7.082;2023-11-22T14:25:04;10.30;;;4.07;;
5085;SDS011;4715;51.660;7.082;2023-11-22T14:27:31;5.33;;;3.87;;
5085;SDS011;4715;51.660;7.082;2023-11-22T14:29:55;7.30;;;5.30;;
5085;SDS011;4715;51.660;7.082;2023-11-22T14:32:18;7.20;;;4.83;;
5085;SDS011;4715;51.660;7.082;2023-11-22T14:34:41;5.80;;;4.73;;
5085;SDS011;4715;51.660;7.082;2023-11-22T14:37:03;9.17;;;4.57;;
5085;SDS011;4715;51.660;7.082;2023-11-22T14:39:25;5.63;;;4.30;;
5085;SDS011;4715;51.660;7.082;2023-11-22T14:41:52;6.20;;;4.17;;
5085;SDS011;4715;51.660;7.082;2023-11-22T14:44:15;8.33;;;5.10;;
5085;SDS011;4715;51.660;7.082;2023-11-22T14:46:39;6.30;;;4.50;;
5085;SDS011;4715;51.660;7.082;2023-11-22T14:49:02;4.90;;;3.90;;
5085;SDS011;4715;51.660;7.082;2023-11-22T14:51:28;5.10;;;4.60;;